Weather at Balcali Hospital Helipad

Public forecast

Using degrees Celsius for public forecast. Weather courtesy of forecast.io.

Closest aviation weather report (METAR) to Balcali Hospital Helipad

Closest report is İncirlik Air Base, 4.3 nm (8.0 km) SE.

2024/05/26 09:20 (retrieved 12 minutes ago)

LTAG 260920Z 17009KT 9999 SCT035 BKN100 26/17 Q1011 NOSIG

Closest aviation forecast (TAF) to Balcali Hospital Helipad

Closest forecast is İncirlik Air Base, 4.3 nm (8.0 km) SE.

2024/05/26 06:03 (retrieved 3 hours ago)

TAF LTAG 260440Z 2606/2706 VRB02KT 9999 SCT035 TEMPO 2610/2614 BKN035 BECMG 2615/2617 CAVOK BECMG 2620/2622 SCT030 PROB30 TEMPO 2703/2706 -TSRA FEW020CB BKN030